NCAR-RAP Real-Time Weather Data

Output produced by METARs form (14 June 2021  06:54 UTC)
found at http://weather.rap.ucar.edu/surface/
 
KHIO 140614Z AUTO 00000KT 10SM SCT008 OVC100 16/16 A2992 RMK AO2 T01610161
KHIO 140553Z AUTO 06003KT 10SM FEW029 OVC100 16/16 A2992 RMK AO2 SLP130 60005 T01610156 10172 20156 56001
KHIO 140500Z AUTO 28003KT 10SM FEW008 SCT032 OVC110 16/16 A2994 RMK AO2 T01610161
KHIO 140453Z AUTO 00000KT 10SM BKN012 BKN037 OVC110 16/16 A2993 RMK AO2 SLP134 T01610161
KHIO 140423Z 00000KT 10SM BKN012 BKN037 OVC110 17/16 A2994 RMK AO2 T01670161
KHIO 140353Z 00000KT 10SM FEW060 OVC110 17/16 A2991 RMK AO2 SLP128 T01670161
KHIO 140253Z 19004KT 10SM SCT008 BKN049 OVC110 17/16 A2992 RMK AO2 RAE0157 SLP132 P0000 60005 T01720156 55001
KHIO 140153Z 18006KT 10SM -RA SCT008 OVC085 17/16 A2991 RMK AO2 RAE0055B33 SLP128 P0000 T01720161
KHIO 140053Z 05004KT 10SM -RA SCT006 BKN085 OVC100 17/16 A2989 RMK AO2 SLP121 P0005 T01670156
KHIO 132353Z 14003KT 6SM -RA BR BKN006 BKN022 OVC090 17/16 A2993 RMK AO2 LTG DSNT E SLP133 P0011 60058 T01670161 10194 20167 53020
KHIO 132253Z 28004KT 3SM -RA BR BKN009 BKN034 OVC070 17/16 A2989 RMK AO2 SLP120 P0020 T01670161
KHIO 132234Z 25005KT 3SM RA BR BKN009 BKN034 OVC070 17/16 A2989 RMK AO2 P0016 T01670156
KHIO 132210Z 24007KT 2 1/2SM +RA BR BKN009 BKN034 OVC070 18/17 A2989 RMK AO2 P0008 T01780172
KHIO 132205Z 25004KT 1 3/4SM RA BR BKN009 BKN034 OVC070 18/17 A2989 RMK AO2 P0005 T01780167
KHIO 132153Z COR 27004KT 5SM -RA BR BKN009 BKN034 OVC070 18/17 A2988 RMK AO2 SLP117 P0010 T01780167
KHIO 132141Z 15003KT 5SM RA BR BKN012 OVC028 18/17 A2988 RMK AO2 P0008 T01780167
KHIO 132053Z 15004KT 1SM R13R/P6000FT RA BR BKN012 BKN028 17/17 A2987 RMK AO2 SLP113 P0012 60017 T01720167 53003
KHIO 131953Z 00000KT 1SM R13R/P6000FT -RA BR BKN012 BKN028 OVC065 18/16 A2986 RMK AO2 SLP109 P0005 T01830161
KHIO 131935Z 20004KT 2SM -RA BR BKN014 BKN034 OVC065 18/16 A2986 RMK AO2 P0001 T01830161